Aérodrome :
LOGIN :

S'inscrire | Disclaimer

   EN    FR    IT 

 










Légende :    VFR   VFR Marginal   IFR   IFR Intensif   IFR Très Intensif
Visi : 
Plafond : 
>= 8 km
>= 3000ft
5 à 8 km
1000 à 3000 ft
1500m à 5 km
500 à 1000 ft
800 à 1500m
200 à 500 ft
< 800m
< 200 ft
Symboles :   Orages  Brouillard  Fortes neiges  Fortes précipitations  Vent > 20 kt
SIGMETs :   Divers  Orages  Givrage  Turbulence  Onde Orograph.  Cendres Volcan.






- Altitude de l'aérodrome : 3368 ft


LSGC - Les Eplatures

DERNIER METAR :
  • 220650Z AUTO 21011KT 170V300 9999 NSC 04/01 Q0996

METARs EXPIRÉS :
  • 220620Z AUTO 22012KT 9999 NCD 04/01 Q0996
  • 220550Z AUTO 23005KT 150V270 9999 FEW024 04/01 Q0996
  • 220520Z AUTO 23009KT 170V260 9999 NSC 04/01 Q0997
  • 220450Z AUTO 23009KT 200V270 9999 FEW022 04/01 Q0998
  • 220420Z AUTO 22012G23KT 190V270 9999 -RA SCT018 SCT020 BKN034 04/01 Q0998

TAF TAF LSGC
Valide du 22 à 06h jusqu'au 22 à 15h UTC


220525Z 2206/2215 23010KT 9999 BKN025
BECMG 2212/2215 4000 RA BKN014



MET'MAP, la Météo Aéronautique d'un coup d'oeil ! - Copyright ORBIFLY Décembre 2007 - Disclaimer

ORBIFLY MET'MAP TEAM :

Programmation & Développement : Alexandra Zaïnal
Sur une idée originale de : Baudouin d'Aumeries
Assistance à la programmation : Marc-Olivier Méhu
Soutien technique & logistique : Manuel Goepfert

Contact : metmap@orbifly.com




SOURCES & CREDITS :

   NOAA